sensor_id;sensor_type;location;lat;lon;timestamp;P1;durP1;ratioP1;P2;durP2;ratioP2
45296;SDS011;31040;51.622;10.420;2024-03-02T00:02:02;12.70;;;9.00;;
45296;SDS011;31040;51.622;10.420;2024-03-02T00:04:32;10.55;;;8.15;;
45296;SDS011;31040;51.622;10.420;2024-03-02T00:06:59;11.77;;;8.70;;
45296;SDS011;31040;51.622;10.420;2024-03-02T00:09:26;13.80;;;8.73;;
45296;SDS011;31040;51.622;10.420;2024-03-02T00:11:54;13.05;;;8.38;;
45296;SDS011;31040;51.622;10.420;2024-03-02T00:14:22;12.60;;;8.90;;
45296;SDS011;31040;51.622;10.420;2024-03-02T00:16:51;10.73;;;8.05;;
45296;SDS011;31040;51.622;10.420;2024-03-02T00:19:19;12.90;;;8.55;;
45296;SDS011;31040;51.622;10.420;2024-03-02T00:21:47;12.65;;;8.18;;
45296;SDS011;31040;51.622;10.420;2024-03-02T00:24:19;11.10;;;7.97;;
45296;SDS011;31040;51.622;10.420;2024-03-02T00:26:47;14.40;;;8.48;;
45296;SDS011;31040;51.622;10.420;2024-03-02T00:29:15;13.40;;;8.85;;
45296;SDS011;31040;51.622;10.420;2024-03-02T00:31:43;12.30;;;8.50;;
45296;SDS011;31040;51.622;10.420;2024-03-02T00:34:10;12.15;;;9.35;;
45296;SDS011;31040;51.622;10.420;2024-03-02T00:36:40;13.98;;;9.32;;
45296;SDS011;31040;51.622;10.420;2024-03-02T00:39:07;13.57;;;9.07;;
45296;SDS011;31040;51.622;10.420;2024-03-02T00:41:35;15.05;;;9.88;;
45296;SDS011;31040;51.622;10.420;2024-03-02T00:44:06;12.68;;;8.18;;
45296;SDS011;31040;51.622;10.420;2024-03-02T00:46:35;13.82;;;9.55;;
45296;SDS011;31040;51.622;10.420;2024-03-02T00:49:03;11.50;;;9.20;;
45296;SDS011;31040;51.622;10.420;2024-03-02T00:51:32;12.25;;;9.10;;
45296;SDS011;31040;51.622;10.420;2024-03-02T00:54:04;14.00;;;8.85;;
45296;SDS011;31040;51.622;10.420;2024-03-02T00:56:32;14.80;;;8.95;;
45296;SDS011;31040;51.622;10.420;2024-03-02T00:59:01;14.38;;;9.55;;
45296;SDS011;31040;51.622;10.420;2024-03-02T01:01:29;12.98;;;8.32;;
45296;SDS011;31040;51.622;10.420;2024-03-02T01:03:56;12.40;;;8.68;;
45296;SDS011;31040;51.622;10.420;2024-03-02T01:06:24;15.73;;;9.35;;
45296;SDS011;31040;51.622;10.420;2024-03-02T01:08:51;14.98;;;9.63;;
45296;SDS011;31040;51.622;10.420;2024-03-02T01:11:19;14.20;;;9.25;;
45296;SDS011;31040;51.622;10.420;2024-03-02T01:13:50;15.80;;;8.77;;
45296;SDS011;31040;51.622;10.420;2024-03-02T01:16:19;14.93;;;9.10;;
45296;SDS011;31040;51.622;10.420;2024-03-02T01:18:46;11.55;;;8.60;;
45296;SDS011;31040;51.622;10.420;2024-03-02T01:21:14;12.05;;;8.65;;
45296;SDS011;31040;51.622;10.420;2024-03-02T01:23:42;14.90;;;9.15;;
45296;SDS011;31040;51.622;10.420;2024-03-02T01:26:10;10.95;;;8.00;;
45296;SDS011;31040;51.622;10.420;2024-03-02T01:28:37;12.32;;;9.80;;
45296;SDS011;31040;51.622;10.420;2024-03-02T01:31:05;12.27;;;8.38;;
45296;SDS011;31040;51.622;10.420;2024-03-02T01:33:32;11.35;;;8.13;;
45296;SDS011;31040;51.622;10.420;2024-03-02T01:36:00;13.43;;;8.82;;
45296;SDS011;31040;51.622;10.420;2024-03-02T01:38:27;14.10;;;8.65;;
45296;SDS011;31040;51.622;10.420;2024-03-02T01:40:55;11.27;;;8.27;;
45296;SDS011;31040;51.622;10.420;2024-03-02T01:43:23;13.77;;;8.95;;
45296;SDS011;31040;51.622;10.420;2024-03-02T01:45:51;12.65;;;8.88;;
45296;SDS011;31040;51.622;10.420;2024-03-02T01:48:18;15.85;;;9.73;;
45296;SDS011;31040;51.622;10.420;2024-03-02T01:50:46;12.57;;;10.10;;
45296;SDS011;31040;51.622;10.420;2024-03-02T01:53:13;14.55;;;10.00;;
45296;SDS011;31040;51.622;10.420;2024-03-02T01:55:41;17.15;;;10.10;;
45296;SDS011;31040;51.622;10.420;2024-03-02T01:58:08;15.38;;;10.48;;
45296;SDS011;31040;51.622;10.420;2024-03-02T02:00:35;13.85;;;9.27;;
45296;SDS011;31040;51.622;10.420;2024-03-02T02:03:03;14.30;;;10.50;;
45296;SDS011;31040;51.622;10.420;2024-03-02T02:05:31;14.57;;;9.95;;
45296;SDS011;31040;51.622;10.420;2024-03-02T02:07:58;14.82;;;9.85;;
45296;SDS011;31040;51.622;10.420;2024-03-02T02:10:26;15.73;;;10.82;;
45296;SDS011;31040;51.622;10.420;2024-03-02T02:12:53;17.40;;;11.15;;
45296;SDS011;31040;51.622;10.420;2024-03-02T02:15:21;17.58;;;11.50;;
45296;SDS011;31040;51.622;10.420;2024-03-02T02:17:49;16.02;;;11.02;;
45296;SDS011;31040;51.622;10.420;2024-03-02T02:20:17;16.63;;;11.50;;
45296;SDS011;31040;51.622;10.420;2024-03-02T02:25:25;14.73;;;10.60;;
45296;SDS011;31040;51.622;10.420;2024-03-02T02:27:53;17.55;;;11.68;;
45296;SDS011;31040;51.622;10.420;2024-03-02T02:30:22;16.70;;;11.23;;
45296;SDS011;31040;51.622;10.420;2024-03-02T02:32:50;15.60;;;10.50;;
45296;SDS011;31040;51.622;10.420;2024-03-02T02:35:18;16.15;;;10.68;;
45296;SDS011;31040;51.622;10.420;2024-03-02T02:37:45;17.90;;;10.88;;
45296;SDS011;31040;51.622;10.420;2024-03-02T02:40:14;16.48;;;11.48;;
45296;SDS011;31040;51.622;10.420;2024-03-02T02:42:41;16.85;;;10.93;;
45296;SDS011;31040;51.622;10.420;2024-03-02T02:45:09;15.95;;;10.50;;
45296;SDS011;31040;51.622;10.420;2024-03-02T02:47:42;16.20;;;11.13;;
45296;SDS011;31040;51.622;10.420;2024-03-02T02:50:11;15.57;;;11.02;;
45296;SDS011;31040;51.622;10.420;2024-03-02T02:52:39;15.75;;;9.73;;
45296;SDS011;31040;51.622;10.420;2024-03-02T02:55:08;16.30;;;10.55;;
45296;SDS011;31040;51.622;10.420;2024-03-02T02:57:36;12.95;;;9.43;;
45296;SDS011;31040;51.622;10.420;2024-03-02T03:00:10;14.73;;;9.90;;
45296;SDS011;31040;51.622;10.420;2024-03-02T03:02:42;14.65;;;9.95;;
45296;SDS011;31040;51.622;10.420;2024-03-02T03:05:10;16.40;;;10.27;;
45296;SDS011;31040;51.622;10.420;2024-03-02T03:07:38;16.20;;;11.68;;
45296;SDS011;31040;51.622;10.420;2024-03-02T03:10:06;18.08;;;11.05;;
45296;SDS011;31040;51.622;10.420;2024-03-02T03:12:34;15.80;;;9.90;;
45296;SDS011;31040;51.622;10.420;2024-03-02T03:15:02;16.85;;;10.80;;
45296;SDS011;31040;51.622;10.420;2024-03-02T03:17:31;13.85;;;9.63;;
45296;SDS011;31040;51.622;10.420;2024-03-02T03:19:58;17.25;;;10.80;;
45296;SDS011;31040;51.622;10.420;2024-03-02T03:22:27;17.50;;;12.27;;
45296;SDS011;31040;51.622;10.420;2024-03-02T03:24:54;18.90;;;11.48;;
45296;SDS011;31040;51.622;10.420;2024-03-02T03:27:22;20.15;;;12.13;;
45296;SDS011;31040;51.622;10.420;2024-03-02T03:29:49;20.35;;;12.88;;
45296;SDS011;31040;51.622;10.420;2024-03-02T03:32:17;16.55;;;11.38;;
45296;SDS011;31040;51.622;10.420;2024-03-02T03:34:44;19.35;;;11.57;;
45296;SDS011;31040;51.622;10.420;2024-03-02T03:37:12;20.83;;;12.60;;
45296;SDS011;31040;51.622;10.420;2024-03-02T03:39:39;18.92;;;11.98;;
45296;SDS011;31040;51.622;10.420;2024-03-02T03:42:06;21.73;;;12.57;;
45296;SDS011;31040;51.622;10.420;2024-03-02T03:44:34;16.42;;;10.27;;
45296;SDS011;31040;51.622;10.420;2024-03-02T03:47:01;16.27;;;11.52;;
45296;SDS011;31040;51.622;10.420;2024-03-02T03:49:29;17.17;;;10.73;;
45296;SDS011;31040;51.622;10.420;2024-03-02T03:51:56;15.05;;;9.93;;
45296;SDS011;31040;51.622;10.420;2024-03-02T03:54:24;17.65;;;11.45;;
45296;SDS011;31040;51.622;10.420;2024-03-02T03:56:52;16.10;;;11.15;;
45296;SDS011;31040;51.622;10.420;2024-03-02T03:59:19;19.35;;;11.82;;
45296;SDS011;31040;51.622;10.420;2024-03-02T04:01:46;16.92;;;11.18;;
45296;SDS011;31040;51.622;10.420;2024-03-02T04:04:14;17.38;;;11.15;;
45296;SDS011;31040;51.622;10.420;2024-03-02T04:06:41;18.55;;;11.88;;
45296;SDS011;31040;51.622;10.420;2024-03-02T04:09:09;19.23;;;11.70;;
45296;SDS011;31040;51.622;10.420;2024-03-02T04:11:36;18.92;;;10.65;;
45296;SDS011;31040;51.622;10.420;2024-03-02T04:14:03;18.95;;;11.88;;
45296;SDS011;31040;51.622;10.420;2024-03-02T04:16:32;18.35;;;11.73;;
45296;SDS011;31040;51.622;10.420;2024-03-02T04:19:00;20.67;;;12.88;;
45296;SDS011;31040;51.622;10.420;2024-03-02T04:21:28;19.45;;;12.43;;
45296;SDS011;31040;51.622;10.420;2024-03-02T04:23:55;22.02;;;12.70;;
45296;SDS011;31040;51.622;10.420;2024-03-02T04:26:26;18.42;;;12.63;;
45296;SDS011;31040;51.622;10.420;2024-03-02T04:28:54;20.02;;;12.70;;
45296;SDS011;31040;51.622;10.420;2024-03-02T04:31:21;18.45;;;11.88;;
45296;SDS011;31040;51.622;10.420;2024-03-02T04:33:49;19.92;;;12.15;;
45296;SDS011;31040;51.622;10.420;2024-03-02T04:36:16;19.77;;;12.32;;
45296;SDS011;31040;51.622;10.420;2024-03-02T04:38:44;16.35;;;10.55;;
45296;SDS011;31040;51.622;10.420;2024-03-02T04:41:11;24.05;;;12.50;;
45296;SDS011;31040;51.622;10.420;2024-03-02T04:43:38;19.48;;;11.85;;
45296;SDS011;31040;51.622;10.420;2024-03-02T04:46:06;20.92;;;12.45;;
45296;SDS011;31040;51.622;10.420;2024-03-02T04:48:34;20.58;;;11.63;;
45296;SDS011;31040;51.622;10.420;2024-03-02T04:51:02;17.70;;;11.77;;
45296;SDS011;31040;51.622;10.420;2024-03-02T04:53:29;17.55;;;11.10;;
45296;SDS011;31040;51.622;10.420;2024-03-02T04:55:56;18.83;;;11.48;;
45296;SDS011;31040;51.622;10.420;2024-03-02T04:58:50;17.35;;;11.25;;
45296;SDS011;31040;51.622;10.420;2024-03-02T05:01:17;17.83;;;11.93;;
45296;SDS011;31040;51.622;10.420;2024-03-02T05:03:45;19.88;;;12.07;;
45296;SDS011;31040;51.622;10.420;2024-03-02T05:06:12;16.10;;;11.00;;
45296;SDS011;31040;51.622;10.420;2024-03-02T05:08:40;19.00;;;12.30;;
45296;SDS011;31040;51.622;10.420;2024-03-02T05:11:07;18.30;;;10.63;;
45296;SDS011;31040;51.622;10.420;2024-03-02T05:13:53;16.23;;;10.70;;
45296;SDS011;31040;51.622;10.420;2024-03-02T05:16:20;20.45;;;12.32;;
45296;SDS011;31040;51.622;10.420;2024-03-02T05:18:49;19.80;;;11.98;;
45296;SDS011;31040;51.622;10.420;2024-03-02T05:21:16;21.08;;;12.60;;
45296;SDS011;31040;51.622;10.420;2024-03-02T05:23:43;21.45;;;13.13;;
45296;SDS011;31040;51.622;10.420;2024-03-02T05:26:11;21.50;;;12.30;;
45296;SDS011;31040;51.622;10.420;2024-03-02T05:28:41;21.65;;;12.77;;
45296;SDS011;31040;51.622;10.420;2024-03-02T05:31:11;24.67;;;14.63;;
45296;SDS011;31040;51.622;10.420;2024-03-02T05:33:43;23.02;;;13.88;;
45296;SDS011;31040;51.622;10.420;2024-03-02T05:36:10;23.83;;;13.30;;
45296;SDS011;31040;51.622;10.420;2024-03-02T05:38:38;22.52;;;12.93;;
45296;SDS011;31040;51.622;10.420;2024-03-02T05:41:06;22.95;;;13.65;;
45296;SDS011;31040;51.622;10.420;2024-03-02T05:43:33;22.05;;;13.55;;
45296;SDS011;31040;51.622;10.420;2024-03-02T05:46:01;25.83;;;14.75;;
45296;SDS011;31040;51.622;10.420;2024-03-02T05:48:31;22.70;;;13.90;;
45296;SDS011;31040;51.622;10.420;2024-03-02T05:50:58;23.63;;;13.13;;
45296;SDS011;31040;51.622;10.420;2024-03-02T05:53:26;18.77;;;12.40;;
45296;SDS011;31040;51.622;10.420;2024-03-02T05:55:53;19.25;;;12.90;;
45296;SDS011;31040;51.622;10.420;2024-03-02T05:58:22;20.90;;;12.75;;
45296;SDS011;31040;51.622;10.420;2024-03-02T06:00:52;17.83;;;11.90;;
45296;SDS011;31040;51.622;10.420;2024-03-02T06:03:21;19.58;;;11.23;;
45296;SDS011;31040;51.622;10.420;2024-03-02T06:05:48;18.70;;;11.65;;
45296;SDS011;31040;51.622;10.420;2024-03-02T06:08:16;17.85;;;12.05;;
45296;SDS011;31040;51.622;10.420;2024-03-02T06:10:43;18.38;;;12.02;;
45296;SDS011;31040;51.622;10.420;2024-03-02T06:13:11;16.95;;;11.93;;
45296;SDS011;31040;51.622;10.420;2024-03-02T06:15:38;19.25;;;12.02;;
45296;SDS011;31040;51.622;10.420;2024-03-02T06:18:06;21.33;;;11.98;;
45296;SDS011;31040;51.622;10.420;2024-03-02T06:20:34;24.45;;;12.75;;
45296;SDS011;31040;51.622;10.420;2024-03-02T06:23:03;18.80;;;11.68;;
45296;SDS011;31040;51.622;10.420;2024-03-02T06:25:30;19.80;;;12.02;;
45296;SDS011;31040;51.622;10.420;2024-03-02T06:27:57;19.08;;;11.82;;
45296;SDS011;31040;51.622;10.420;2024-03-02T06:30:25;19.05;;;11.77;;
45296;SDS011;31040;51.622;10.420;2024-03-02T06:32:52;20.88;;;12.68;;
45296;SDS011;31040;51.622;10.420;2024-03-02T06:35:23;21.55;;;12.60;;
45296;SDS011;31040;51.622;10.420;2024-03-02T06:37:50;20.90;;;12.80;;
45296;SDS011;31040;51.622;10.420;2024-03-02T06:40:18;23.27;;;12.57;;
45296;SDS011;31040;51.622;10.420;2024-03-02T06:42:45;21.63;;;12.27;;
45296;SDS011;31040;51.622;10.420;2024-03-02T06:45:12;23.95;;;13.70;;
45296;SDS011;31040;51.622;10.420;2024-03-02T06:47:40;20.48;;;12.98;;
45296;SDS011;31040;51.622;10.420;2024-03-02T06:50:07;21.85;;;13.25;;
45296;SDS011;31040;51.622;10.420;2024-03-02T06:52:35;22.40;;;15.18;;
45296;SDS011;31040;51.622;10.420;2024-03-02T06:55:03;22.73;;;13.88;;
45296;SDS011;31040;51.622;10.420;2024-03-02T06:57:31;24.92;;;15.75;;
45296;SDS011;31040;51.622;10.420;2024-03-02T06:59:58;24.88;;;14.45;;
45296;SDS011;31040;51.622;10.420;2024-03-02T07:02:26;23.98;;;15.10;;
45296;SDS011;31040;51.622;10.420;2024-03-02T07:04:54;25.45;;;15.23;;
45296;SDS011;31040;51.622;10.420;2024-03-02T07:07:21;25.42;;;15.02;;
45296;SDS011;31040;51.622;10.420;2024-03-02T07:09:49;27.65;;;15.63;;
45296;SDS011;31040;51.622;10.420;2024-03-02T07:12:16;25.05;;;14.95;;
45296;SDS011;31040;51.622;10.420;2024-03-02T07:14:44;25.50;;;15.70;;
45296;SDS011;31040;51.622;10.420;2024-03-02T07:17:34;22.23;;;14.05;;
45296;SDS011;31040;51.622;10.420;2024-03-02T07:20:03;21.73;;;14.23;;
45296;SDS011;31040;51.622;10.420;2024-03-02T07:22:33;24.15;;;14.82;;
45296;SDS011;31040;51.622;10.420;2024-03-02T07:25:00;24.10;;;15.48;;
45296;SDS011;31040;51.622;10.420;2024-03-02T07:27:30;26.08;;;15.85;;
45296;SDS011;31040;51.622;10.420;2024-03-02T07:29:58;19.80;;;13.43;;
45296;SDS011;31040;51.622;10.420;2024-03-02T07:32:25;25.70;;;15.48;;
45296;SDS011;31040;51.622;10.420;2024-03-02T07:34:53;23.42;;;15.13;;
45296;SDS011;31040;51.622;10.420;2024-03-02T07:37:21;28.15;;;16.48;;
45296;SDS011;31040;51.622;10.420;2024-03-02T07:39:48;27.15;;;17.42;;
45296;SDS011;31040;51.622;10.420;2024-03-02T07:42:16;29.02;;;18.00;;
45296;SDS011;31040;51.622;10.420;2024-03-02T07:44:44;24.90;;;15.75;;
45296;SDS011;31040;51.622;10.420;2024-03-02T07:47:12;28.90;;;18.13;;
45296;SDS011;31040;51.622;10.420;2024-03-02T07:49:39;32.22;;;17.90;;
45296;SDS011;31040;51.622;10.420;2024-03-02T07:52:07;26.98;;;16.20;;
45296;SDS011;31040;51.622;10.420;2024-03-02T07:54:34;30.50;;;17.27;;
45296;SDS011;31040;51.622;10.420;2024-03-02T07:57:02;26.77;;;15.75;;
45296;SDS011;31040;51.622;10.420;2024-03-02T07:59:29;25.38;;;16.25;;
45296;SDS011;31040;51.622;10.420;2024-03-02T08:01:57;27.58;;;18.15;;
45296;SDS011;31040;51.622;10.420;2024-03-02T08:04:25;27.27;;;16.13;;
45296;SDS011;31040;51.622;10.420;2024-03-02T08:06:52;27.42;;;16.77;;
45296;SDS011;31040;51.622;10.420;2024-03-02T08:09:21;26.63;;;16.65;;
45296;SDS011;31040;51.622;10.420;2024-03-02T08:11:48;29.27;;;17.27;;
45296;SDS011;31040;51.622;10.420;2024-03-02T08:14:16;26.27;;;15.70;;
45296;SDS011;31040;51.622;10.420;2024-03-02T08:16:43;29.02;;;17.33;;
45296;SDS011;31040;51.622;10.420;2024-03-02T08:19:11;24.27;;;16.08;;
45296;SDS011;31040;51.622;10.420;2024-03-02T08:21:38;29.23;;;17.92;;
45296;SDS011;31040;51.622;10.420;2024-03-02T08:24:06;27.90;;;17.77;;
45296;SDS011;31040;51.622;10.420;2024-03-02T08:26:34;27.80;;;18.23;;
45296;SDS011;31040;51.622;10.420;2024-03-02T08:29:01;32.22;;;19.80;;
45296;SDS011;31040;51.622;10.420;2024-03-02T08:31:30;30.02;;;19.02;;
45296;SDS011;31040;51.622;10.420;2024-03-02T08:33:57;28.60;;;17.98;;
45296;SDS011;31040;51.622;10.420;2024-03-02T08:36:25;27.25;;;18.20;;
45296;SDS011;31040;51.622;10.420;2024-03-02T08:38:53;30.00;;;17.95;;
45296;SDS011;31040;51.622;10.420;2024-03-02T08:41:20;29.33;;;19.02;;
45296;SDS011;31040;51.622;10.420;2024-03-02T08:43:47;30.90;;;18.65;;
45296;SDS011;31040;51.622;10.420;2024-03-02T08:46:15;26.48;;;17.33;;
45296;SDS011;31040;51.622;10.420;2024-03-02T08:48:42;26.20;;;16.27;;
45296;SDS011;31040;51.622;10.420;2024-03-02T08:51:10;25.50;;;16.05;;
45296;SDS011;31040;51.622;10.420;2024-03-02T08:53:37;27.70;;;18.15;;
45296;SDS011;31040;51.622;10.420;2024-03-02T08:56:05;32.70;;;19.73;;
45296;SDS011;31040;51.622;10.420;2024-03-02T08:58:32;37.38;;;20.52;;
45296;SDS011;31040;51.622;10.420;2024-03-02T09:01:00;33.13;;;18.67;;
45296;SDS011;31040;51.622;10.420;2024-03-02T09:03:27;30.70;;;17.60;;
45296;SDS011;31040;51.622;10.420;2024-03-02T09:05:56;27.88;;;17.52;;
45296;SDS011;31040;51.622;10.420;2024-03-02T09:08:24;28.70;;;18.38;;
45296;SDS011;31040;51.622;10.420;2024-03-02T09:10:51;31.55;;;17.75;;
45296;SDS011;31040;51.622;10.420;2024-03-02T09:13:19;22.45;;;16.08;;
45296;SDS011;31040;51.622;10.420;2024-03-02T09:15:46;27.08;;;17.40;;
45296;SDS011;31040;51.622;10.420;2024-03-02T09:18:14;27.90;;;17.50;;
45296;SDS011;31040;51.622;10.420;2024-03-02T09:20:42;26.02;;;16.45;;
45296;SDS011;31040;51.622;10.420;2024-03-02T09:23:09;26.20;;;17.23;;
45296;SDS011;31040;51.622;10.420;2024-03-02T09:25:36;27.02;;;15.68;;
45296;SDS011;31040;51.622;10.420;2024-03-02T09:28:04;26.58;;;15.25;;
45296;SDS011;31040;51.622;10.420;2024-03-02T09:30:31;26.42;;;17.50;;
45296;SDS011;31040;51.622;10.420;2024-03-02T09:32:59;23.27;;;14.65;;
45296;SDS011;31040;51.622;10.420;2024-03-02T09:35:29;21.20;;;13.30;;
45296;SDS011;31040;51.622;10.420;2024-03-02T09:37:57;20.58;;;13.70;;
45296;SDS011;31040;51.622;10.420;2024-03-02T09:40:25;18.15;;;12.35;;
45296;SDS011;31040;51.622;10.420;2024-03-02T09:42:52;22.65;;;14.60;;
45296;SDS011;31040;51.622;10.420;2024-03-02T09:45:22;19.70;;;13.02;;
45296;SDS011;31040;51.622;10.420;2024-03-02T09:47:50;15.80;;;10.52;;
45296;SDS011;31040;51.622;10.420;2024-03-02T09:50:18;18.50;;;11.60;;
45296;SDS011;31040;51.622;10.420;2024-03-02T09:52:48;18.80;;;13.40;;
45296;SDS011;31040;51.622;10.420;2024-03-02T09:55:17;17.45;;;12.23;;
45296;SDS011;31040;51.622;10.420;2024-03-02T09:57:45;22.02;;;13.50;;
45296;SDS011;31040;51.622;10.420;2024-03-02T10:00:15;19.73;;;12.20;;
45296;SDS011;31040;51.622;10.420;2024-03-02T10:02:42;17.95;;;12.23;;
45296;SDS011;31040;51.622;10.420;2024-03-02T10:05:10;24.90;;;15.15;;
45296;SDS011;31040;51.622;10.420;2024-03-02T10:07:38;22.33;;;14.13;;
45296;SDS011;31040;51.622;10.420;2024-03-02T10:10:13;22.38;;;14.13;;
45296;SDS011;31040;51.622;10.420;2024-03-02T10:12:40;24.00;;;14.73;;
45296;SDS011;31040;51.622;10.420;2024-03-02T10:15:08;18.55;;;12.82;;
45296;SDS011;31040;51.622;10.420;2024-03-02T10:17:36;21.88;;;13.35;;
45296;SDS011;31040;51.622;10.420;2024-03-02T10:20:20;20.52;;;13.73;;
45296;SDS011;31040;51.622;10.420;2024-03-02T10:22:49;22.67;;;15.87;;
45296;SDS011;31040;51.622;10.420;2024-03-02T10:25:30;23.15;;;12.82;;
45296;SDS011;31040;51.622;10.420;2024-03-02T10:28:16;20.75;;;12.93;;
45296;SDS011;31040;51.622;10.420;2024-03-02T10:30:46;23.58;;;14.45;;
45296;SDS011;31040;51.622;10.420;2024-03-02T10:33:17;22.25;;;12.90;;
45296;SDS011;31040;51.622;10.420;2024-03-02T10:35:44;22.33;;;14.52;;
45296;SDS011;31040;51.622;10.420;2024-03-02T10:38:12;20.92;;;14.40;;
45296;SDS011;31040;51.622;10.420;2024-03-02T10:40:39;20.80;;;13.93;;
45296;SDS011;31040;51.622;10.420;2024-03-02T10:43:06;20.38;;;14.63;;
45296;SDS011;31040;51.622;10.420;2024-03-02T10:45:34;22.70;;;14.38;;
45296;SDS011;31040;51.622;10.420;2024-03-02T10:48:02;23.85;;;14.10;;
45296;SDS011;31040;51.622;10.420;2024-03-02T10:50:32;23.13;;;14.48;;
45296;SDS011;31040;51.622;10.420;2024-03-02T10:52:59;23.05;;;14.68;;
45296;SDS011;31040;51.622;10.420;2024-03-02T10:55:27;19.08;;;12.68;;
45296;SDS011;31040;51.622;10.420;2024-03-02T10:57:54;20.25;;;12.43;;
45296;SDS011;31040;51.622;10.420;2024-03-02T11:00:26;18.70;;;13.50;;
45296;SDS011;31040;51.622;10.420;2024-03-02T11:03:07;20.33;;;12.73;;
45296;SDS011;31040;51.622;10.420;2024-03-02T11:05:44;20.33;;;13.45;;
45296;SDS011;31040;51.622;10.420;2024-03-02T11:08:12;18.45;;;12.73;;
45296;SDS011;31040;51.622;10.420;2024-03-02T11:10:41;19.70;;;13.02;;
45296;SDS011;31040;51.622;10.420;2024-03-02T11:13:13;19.05;;;13.40;;
45296;SDS011;31040;51.622;10.420;2024-03-02T11:15:43;22.08;;;14.85;;
45296;SDS011;31040;51.622;10.420;2024-03-02T11:18:10;19.65;;;13.88;;
45296;SDS011;31040;51.622;10.420;2024-03-02T11:20:39;19.80;;;13.63;;
45296;SDS011;31040;51.622;10.420;2024-03-02T11:23:07;21.10;;;13.85;;
45296;SDS011;31040;51.622;10.420;2024-03-02T11:25:35;18.27;;;12.48;;
45296;SDS011;31040;51.622;10.420;2024-03-02T11:28:04;19.63;;;13.77;;
45296;SDS011;31040;51.622;10.420;2024-03-02T11:33:04;21.85;;;13.40;;
45296;SDS011;31040;51.622;10.420;2024-03-02T11:35:41;19.77;;;13.73;;
45296;SDS011;31040;51.622;10.420;2024-03-02T11:38:10;24.52;;;15.63;;
45296;SDS011;31040;51.622;10.420;2024-03-02T11:40:38;22.30;;;13.85;;
45296;SDS011;31040;51.622;10.420;2024-03-02T11:43:06;21.48;;;13.40;;
45296;SDS011;31040;51.622;10.420;2024-03-02T11:45:35;20.45;;;13.82;;
45296;SDS011;31040;51.622;10.420;2024-03-02T11:48:07;20.13;;;13.57;;
45296;SDS011;31040;51.622;10.420;2024-03-02T11:50:46;21.23;;;13.38;;
45296;SDS011;31040;51.622;10.420;2024-03-02T11:53:15;20.88;;;14.13;;
45296;SDS011;31040;51.622;10.420;2024-03-02T11:55:44;18.40;;;13.27;;
45296;SDS011;31040;51.622;10.420;2024-03-02T11:58:13;20.52;;;13.77;;
45296;SDS011;31040;51.622;10.420;2024-03-02T12:00:41;17.92;;;13.00;;
45296;SDS011;31040;51.622;10.420;2024-03-02T12:03:09;18.38;;;12.88;;
45296;SDS011;31040;51.622;10.420;2024-03-02T12:05:39;20.52;;;14.85;;
45296;SDS011;31040;51.622;10.420;2024-03-02T12:08:06;21.65;;;14.50;;
45296;SDS011;31040;51.622;10.420;2024-03-02T12:10:35;18.58;;;12.63;;
45296;SDS011;31040;51.622;10.420;2024-03-02T12:13:03;19.00;;;13.02;;
45296;SDS011;31040;51.622;10.420;2024-03-02T12:15:32;20.80;;;13.60;;
45296;SDS011;31040;51.622;10.420;2024-03-02T12:18:00;19.77;;;13.70;;
45296;SDS011;31040;51.622;10.420;2024-03-02T12:20:29;19.58;;;12.27;;
45296;SDS011;31040;51.622;10.420;2024-03-02T12:23:00;19.52;;;14.25;;
45296;SDS011;31040;51.622;10.420;2024-03-02T12:25:27;20.83;;;13.70;;
45296;SDS011;31040;51.622;10.420;2024-03-02T12:27:56;18.73;;;13.65;;
45296;SDS011;31040;51.622;10.420;2024-03-02T12:30:23;17.45;;;11.25;;
45296;SDS011;31040;51.622;10.420;2024-03-02T12:32:51;17.27;;;10.93;;
45296;SDS011;31040;51.622;10.420;2024-03-02T12:35:18;17.90;;;12.80;;
45296;SDS011;31040;51.622;10.420;2024-03-02T12:40:15;17.95;;;12.40;;
45296;SDS011;31040;51.622;10.420;2024-03-02T12:42:45;17.90;;;12.00;;
45296;SDS011;31040;51.622;10.420;2024-03-02T12:45:13;16.77;;;11.80;;
45296;SDS011;31040;51.622;10.420;2024-03-02T12:47:40;17.05;;;11.70;;
45296;SDS011;31040;51.622;10.420;2024-03-02T12:50:09;17.17;;;11.73;;
45296;SDS011;31040;51.622;10.420;2024-03-02T12:52:37;18.92;;;12.32;;
45296;SDS011;31040;51.622;10.420;2024-03-02T12:55:04;16.42;;;11.45;;
45296;SDS011;31040;51.622;10.420;2024-03-02T12:57:33;16.58;;;12.18;;
45296;SDS011;31040;51.622;10.420;2024-03-02T13:02:28;17.42;;;12.02;;
45296;SDS011;31040;51.622;10.420;2024-03-02T13:04:58;17.67;;;11.25;;
45296;SDS011;31040;51.622;10.420;2024-03-02T13:07:25;15.82;;;12.07;;
45296;SDS011;31040;51.622;10.420;2024-03-02T13:09:53;13.77;;;10.65;;
45296;SDS011;31040;51.622;10.420;2024-03-02T13:12:24;16.67;;;11.63;;
45296;SDS011;31040;51.622;10.420;2024-03-02T13:14:51;15.85;;;10.40;;
45296;SDS011;31040;51.622;10.420;2024-03-02T13:17:19;14.18;;;10.77;;
45296;SDS011;31040;51.622;10.420;2024-03-02T13:19:53;17.33;;;12.40;;
45296;SDS011;31040;51.622;10.420;2024-03-02T13:22:21;17.02;;;11.38;;
45296;SDS011;31040;51.622;10.420;2024-03-02T13:24:49;15.68;;;10.80;;
45296;SDS011;31040;51.622;10.420;2024-03-02T13:27:16;17.73;;;11.57;;
45296;SDS011;31040;51.622;10.420;2024-03-02T13:29:47;13.35;;;9.93;;
45296;SDS011;31040;51.622;10.420;2024-03-02T13:32:15;13.27;;;9.90;;
45296;SDS011;31040;51.622;10.420;2024-03-02T13:34:42;13.50;;;8.80;;
45296;SDS011;31040;51.622;10.420;2024-03-02T13:37:10;13.45;;;9.13;;
45296;SDS011;31040;51.622;10.420;2024-03-02T13:39:38;10.80;;;8.27;;
45296;SDS011;31040;51.622;10.420;2024-03-02T13:42:09;11.95;;;9.20;;
45296;SDS011;31040;51.622;10.420;2024-03-02T13:44:37;12.10;;;8.40;;
45296;SDS011;31040;51.622;10.420;2024-03-02T13:47:05;12.90;;;8.70;;
45296;SDS011;31040;51.622;10.420;2024-03-02T13:49:32;13.38;;;9.00;;
45296;SDS011;31040;51.622;10.420;2024-03-02T13:52:03;12.35;;;9.25;;
45296;SDS011;31040;51.622;10.420;2024-03-02T13:54:37;12.55;;;8.43;;
45296;SDS011;31040;51.622;10.420;2024-03-02T13:57:06;13.25;;;9.77;;
45296;SDS011;31040;51.622;10.420;2024-03-02T13:59:34;13.32;;;8.80;;
45296;SDS011;31040;51.622;10.420;2024-03-02T14:02:02;12.68;;;10.00;;
45296;SDS011;31040;51.622;10.420;2024-03-02T14:04:35;14.18;;;9.80;;
45296;SDS011;31040;51.622;10.420;2024-03-02T14:07:04;18.10;;;12.25;;
45296;SDS011;31040;51.622;10.420;2024-03-02T14:09:35;28.58;;;18.58;;
45296;SDS011;31040;51.622;10.420;2024-03-02T14:12:03;24.77;;;16.10;;
45296;SDS011;31040;51.622;10.420;2024-03-02T14:14:31;15.23;;;9.45;;
45296;SDS011;31040;51.622;10.420;2024-03-02T14:16:59;15.15;;;10.13;;
45296;SDS011;31040;51.622;10.420;2024-03-02T14:19:30;13.27;;;9.15;;
45296;SDS011;31040;51.622;10.420;2024-03-02T14:21:58;12.32;;;8.63;;
45296;SDS011;31040;51.622;10.420;2024-03-02T14:24:26;13.27;;;8.68;;
45296;SDS011;31040;51.622;10.420;2024-03-02T14:26:56;13.23;;;9.18;;
45296;SDS011;31040;51.622;10.420;2024-03-02T14:29:45;12.13;;;8.10;;